Time;durP1;ratioP1;P1;durP2;ratioP2;P2;SDS_P1;SDS_P2;PMS_P1;PMS_P2;Temp;Humidity;BMP_temperature;BMP_pressure;BME280_temperature;BME280_humidity;BME280_pressure;Samples;Min_cycle;Max_cycle;Signal;HPM_P1;HPM_P2
2022/05/31 00:00:27;;;;;;;6.75;3.58;;;;;;;;;;5058703;28;20063;-79
2022/05/31 00:02:55;;;;;;;5.03;3.70;;;;;;;;;;5058689;28;20068;-78
2022/05/31 00:05:21;;;;;;;3.88;3.28;;;;;;;;;;5037063;28;20360;-76
2022/05/31 00:07:49;;;;;;;6.10;3.38;;;;;;;;;;5054933;28;20025;-78
2022/05/31 00:10:15;;;;;;;5.50;3.40;;;;;;;;;;5054930;28;20088;-77
2022/05/31 00:12:42;;;;;;;5.32;3.40;;;;;;;;;;5058131;28;20486;-76
2022/05/31 00:15:09;;;;;;;5.25;3.65;;;;;;;;;;5054412;28;20457;-78
2022/05/31 00:17:36;;;;;;;4.18;3.25;;;;;;;;;;5034355;28;20094;-77
2022/05/31 00:20:04;;;;;;;5.80;3.78;;;;;;;;;;5032875;28;20067;-76
2022/05/31 00:22:32;;;;;;;6.28;3.50;;;;;;;;;;5056042;28;20036;-77
2022/05/31 00:24:59;;;;;;;4.43;3.38;;;;;;;;;;5052763;28;20039;-77
2022/05/31 00:27:26;;;;;;;5.65;3.70;;;;;;;;;;5051422;28;20155;-78
2022/05/31 00:29:54;;;;;;;5.82;3.22;;;;;;;;;;5034768;28;20029;-77
2022/05/31 00:32:21;;;;;;;5.60;3.67;;;;;;;;;;5053666;28;20025;-77
2022/05/31 00:34:50;;;;;;;4.68;3.35;;;;;;;;;;5058790;28;20039;-78
2022/05/31 00:37:16;;;;;;;3.92;3.25;;;;;;;;;;5038233;28;20040;-75
2022/05/31 00:39:43;;;;;;;7.35;4.05;;;;;;;;;;5055405;28;20100;-75
2022/05/31 00:42:14;;;;;;;4.22;3.70;;;;;;;;;;5031635;28;20025;-77
2022/05/31 00:44:40;;;;;;;4.50;3.20;;;;;;;;;;5052554;28;20060;-76
2022/05/31 00:47:09;;;;;;;4.22;3.25;;;;;;;;;;5031468;28;20523;-77
2022/05/31 00:49:48;;;;;;;5.00;3.50;;;;;;;;;;5049991;28;20029;-77
2022/05/31 00:52:23;;;;;;;4.97;3.60;;;;;;;;;;5055196;28;20056;-75
2022/05/31 00:54:52;;;;;;;6.18;3.80;;;;;;;;;;5056883;28;20035;-76
2022/05/31 00:57:18;;;;;;;5.97;3.95;;;;;;;;;;5057882;28;20028;-77
2022/05/31 00:59:47;;;;;;;5.57;3.47;;;;;;;;;;5057750;28;20051;-77
2022/05/31 01:02:17;;;;;;;6.68;3.70;;;;;;;;;;5060247;28;20036;-77
2022/05/31 01:04:46;;;;;;;6.40;4.85;;;;;;;;;;5060445;28;20013;-77
2022/05/31 01:07:13;;;;;;;7.13;5.32;;;;;;;;;;5045562;28;20033;-78
2022/05/31 01:09:39;;;;;;;3.97;3.33;;;;;;;;;;5057002;28;20339;-78
2022/05/31 01:12:06;;;;;;;7.85;4.10;;;;;;;;;;5055709;28;20013;-77
2022/05/31 01:14:34;;;;;;;6.00;4.30;;;;;;;;;;5051883;28;20391;-77
2022/05/31 01:17:00;;;;;;;5.60;4.05;;;;;;;;;;5055629;28;20025;-77
2022/05/31 01:22:12;;;;;;;8.23;6.07;;;;;;;;;;5053840;28;20136;-77
2022/05/31 01:24:50;;;;;;;6.45;3.83;;;;;;;;;;5036560;28;20082;-76
2022/05/31 01:27:29;;;;;;;9.60;3.78;;;;;;;;;;5053253;28;20028;-77
2022/05/31 01:29:56;;;;;;;6.47;3.90;;;;;;;;;;5042017;28;20021;-77
2022/05/31 01:32:22;;;;;;;6.07;3.80;;;;;;;;;;5051728;28;20024;-77
2022/05/31 01:34:49;;;;;;;4.75;3.70;;;;;;;;;;5051620;28;20449;-77
2022/05/31 01:37:15;;;;;;;6.25;5.18;;;;;;;;;;5031574;28;20082;-77
2022/05/31 01:39:49;;;;;;;6.95;4.35;;;;;;;;;;5050802;28;20536;-76
2022/05/31 01:42:37;;;;;;;7.57;4.72;;;;;;;;;;5044504;28;20029;-76
2022/05/31 01:45:07;;;;;;;7.00;5.65;;;;;;;;;;5037094;28;20025;-77
2022/05/31 01:47:34;;;;;;;7.82;4.85;;;;;;;;;;5031327;28;20037;-79
2022/05/31 01:50:01;;;;;;;7.85;4.57;;;;;;;;;;5047898;28;20052;-77
2022/05/31 01:52:30;;;;;;;6.85;4.82;;;;;;;;;;5034457;28;20052;-77
2022/05/31 01:54:57;;;;;;;5.50;4.15;;;;;;;;;;5049308;28;20021;-77
2022/05/31 01:57:24;;;;;;;5.93;4.28;;;;;;;;;;5045093;28;20025;-77
2022/05/31 01:59:57;;;;;;;7.28;5.70;;;;;;;;;;5048029;28;20024;-77
2022/05/31 02:02:24;;;;;;;8.57;5.93;;;;;;;;;;5049489;28;20088;-78
2022/05/31 02:04:50;;;;;;;7.38;4.30;;;;;;;;;;5048671;28;20023;-79
2022/05/31 02:07:18;;;;;;;13.38;8.82;;;;;;;;;;5051899;28;20021;-77
2022/05/31 02:09:46;;;;;;;7.53;5.40;;;;;;;;;;5043079;28;20032;-76
2022/05/31 02:12:13;;;;;;;10.57;6.65;;;;;;;;;;5034352;28;20102;-77
2022/05/31 02:14:39;;;;;;;9.27;6.10;;;;;;;;;;5046798;28;20017;-76
2022/05/31 02:17:06;;;;;;;5.57;4.13;;;;;;;;;;5032727;28;20176;-79
2022/05/31 02:19:33;;;;;;;5.85;5.07;;;;;;;;;;5046775;28;20095;-76
2022/05/31 02:22:01;;;;;;;8.13;4.80;;;;;;;;;;5046487;28;20095;-78
2022/05/31 02:24:28;;;;;;;8.82;5.63;;;;;;;;;;5041700;28;20510;-78
2022/05/31 02:26:55;;;;;;;7.90;4.90;;;;;;;;;;5046824;28;20476;-76
2022/05/31 02:29:27;;;;;;;5.38;4.28;;;;;;;;;;5055749;28;20056;-76
2022/05/31 02:31:54;;;;;;;4.68;3.90;;;;;;;;;;5050455;28;20025;-77
2022/05/31 02:34:22;;;;;;;5.75;4.03;;;;;;;;;;5047445;28;20422;-76
2022/05/31 02:36:49;;;;;;;5.57;4.30;;;;;;;;;;5048888;28;20132;-78
2022/05/31 02:39:15;;;;;;;5.63;3.90;;;;;;;;;;5050234;28;20112;-77
2022/05/31 02:41:42;;;;;;;6.68;4.07;;;;;;;;;;5045476;28;20517;-77
2022/05/31 02:44:09;;;;;;;3.90;3.22;;;;;;;;;;5043427;28;20067;-79
2022/05/31 02:46:35;;;;;;;5.25;3.45;;;;;;;;;;5052492;28;20032;-76
2022/05/31 02:49:04;;;;;;;6.55;4.13;;;;;;;;;;5052771;28;20028;-77
2022/05/31 02:51:41;;;;;;;4.45;4.05;;;;;;;;;;5058953;28;20071;-79
2022/05/31 02:54:09;;;;;;;5.50;3.53;;;;;;;;;;5046717;28;20115;-78
2022/05/31 02:56:35;;;;;;;5.57;3.58;;;;;;;;;;5035049;28;20036;-76
2022/05/31 02:59:01;;;;;;;6.38;3.90;;;;;;;;;;5043988;28;20111;-77
2022/05/31 03:01:28;;;;;;;6.82;3.28;;;;;;;;;;5053138;28;20029;-77
2022/05/31 03:03:54;;;;;;;6.90;3.80;;;;;;;;;;5051812;28;20029;-77
2022/05/31 03:06:21;;;;;;;6.85;4.13;;;;;;;;;;5030822;28;20056;-76
2022/05/31 03:08:47;;;;;;;4.10;2.90;;;;;;;;;;5058920;28;20028;-76
2022/05/31 03:11:33;;;;;;;6.93;4.00;;;;;;;;;;5044387;28;20026;-76
2022/05/31 03:14:05;;;;;;;4.38;3.22;;;;;;;;;;5053241;28;20029;-77
2022/05/31 03:16:33;;;;;;;4.78;3.42;;;;;;;;;;5045782;28;20025;-76
2022/05/31 03:19:02;;;;;;;4.07;3.50;;;;;;;;;;5061014;28;20032;-75
2022/05/31 03:21:31;;;;;;;4.53;3.33;;;;;;;;;;5054994;28;20533;-76
2022/05/31 03:23:59;;;;;;;6.78;4.18;;;;;;;;;;5039588;28;20556;-75
2022/05/31 03:26:28;;;;;;;5.38;3.38;;;;;;;;;;5047031;28;20032;-76
2022/05/31 03:28:54;;;;;;;5.28;4.13;;;;;;;;;;5050503;28;20021;-74
2022/05/31 03:31:20;;;;;;;5.07;3.50;;;;;;;;;;5049769;28;20021;-75
2022/05/31 03:33:46;;;;;;;5.28;3.95;;;;;;;;;;5036498;28;20021;-75
2022/05/31 03:36:12;;;;;;;7.72;3.60;;;;;;;;;;5042307;28;20052;-76
2022/05/31 03:38:38;;;;;;;5.32;3.63;;;;;;;;;;5046581;28;20788;-76
2022/05/31 03:41:05;;;;;;;6.40;3.40;;;;;;;;;;5034747;28;20025;-76
2022/05/31 03:43:36;;;;;;;5.85;3.90;;;;;;;;;;5032739;28;20540;-75
2022/05/31 03:46:02;;;;;;;5.07;3.83;;;;;;;;;;5046211;28;20146;-77
2022/05/31 03:48:28;;;;;;;5.10;3.63;;;;;;;;;;5050287;28;20325;-77
2022/05/31 03:51:05;;;;;;;5.72;3.20;;;;;;;;;;5053327;28;20032;-76
2022/05/31 03:53:31;;;;;;;4.75;4.20;;;;;;;;;;5050432;28;20017;-75
2022/05/31 03:55:57;;;;;;;4.18;3.20;;;;;;;;;;5042814;28;20025;-75
2022/05/31 03:58:23;;;;;;;5.30;3.40;;;;;;;;;;5052140;28;20037;-75
2022/05/31 04:00:50;;;;;;;4.20;3.20;;;;;;;;;;5047443;28;20039;-74
2022/05/31 04:03:16;;;;;;;4.80;3.72;;;;;;;;;;5047600;28;20033;-75
2022/05/31 04:05:42;;;;;;;4.90;3.70;;;;;;;;;;5049828;28;20303;-74
2022/05/31 04:08:11;;;;;;;4.00;3.20;;;;;;;;;;5047592;28;20328;-74
2022/05/31 04:10:37;;;;;;;4.72;3.70;;;;;;;;;;5047024;28;20017;-74
2022/05/31 04:13:03;;;;;;;5.10;3.67;;;;;;;;;;5046280;28;20021;-74
2022/05/31 04:15:29;;;;;;;4.10;3.35;;;;;;;;;;5028405;28;20032;-76
2022/05/31 04:17:56;;;;;;;4.28;3.50;;;;;;;;;;5049800;28;20037;-75
2022/05/31 04:20:22;;;;;;;5.40;3.55;;;;;;;;;;5045742;28;20025;-75
2022/05/31 04:22:48;;;;;;;5.25;3.67;;;;;;;;;;5046838;28;20024;-74
2022/05/31 04:25:14;;;;;;;5.93;3.80;;;;;;;;;;5030677;28;20071;-74
2022/05/31 04:27:40;;;;;;;7.15;4.35;;;;;;;;;;5047549;28;20040;-74
2022/05/31 04:30:07;;;;;;;4.95;3.53;;;;;;;;;;5041004;28;20021;-75
2022/05/31 04:32:33;;;;;;;4.75;3.60;;;;;;;;;;5041813;28;20029;-75
2022/05/31 04:34:59;;;;;;;6.68;3.60;;;;;;;;;;5051296;28;20028;-75
2022/05/31 04:37:25;;;;;;;6.95;3.85;;;;;;;;;;5038729;28;20041;-77
2022/05/31 04:39:51;;;;;;;3.97;3.40;;;;;;;;;;5054621;28;20051;-76
2022/05/31 04:42:17;;;;;;;5.13;3.60;;;;;;;;;;5045794;28;20040;-75
2022/05/31 04:44:43;;;;;;;4.75;3.70;;;;;;;;;;5045674;28;20025;-73
2022/05/31 04:47:09;;;;;;;6.38;4.00;;;;;;;;;;5044428;28;20033;-74
2022/05/31 04:49:35;;;;;;;5.82;3.38;;;;;;;;;;5041740;28;20056;-73
2022/05/31 04:52:02;;;;;;;5.07;3.65;;;;;;;;;;5048605;28;20029;-74
2022/05/31 04:54:30;;;;;;;4.63;3.33;;;;;;;;;;5023783;28;20391;-74
2022/05/31 04:56:59;;;;;;;4.97;3.20;;;;;;;;;;5052873;28;20111;-75
2022/05/31 04:59:26;;;;;;;4.20;3.47;;;;;;;;;;5046251;28;20048;-74
2022/05/31 05:01:52;;;;;;;4.78;3.30;;;;;;;;;;5045214;28;20437;-74
2022/05/31 05:04:19;;;;;;;5.32;3.55;;;;;;;;;;5045850;28;20039;-75
2022/05/31 05:06:45;;;;;;;5.03;3.13;;;;;;;;;;5050829;28;20047;-76
2022/05/31 05:09:11;;;;;;;4.80;3.67;;;;;;;;;;5048740;28;20394;-73
2022/05/31 05:11:37;;;;;;;5.30;3.63;;;;;;;;;;5041325;28;20057;-74
2022/05/31 05:14:03;;;;;;;5.57;3.15;;;;;;;;;;5047999;28;20477;-76
2022/05/31 05:16:29;;;;;;;7.20;4.10;;;;;;;;;;5049138;28;20042;-75
2022/05/31 05:18:56;;;;;;;4.65;3.28;;;;;;;;;;5048005;28;20032;-75
2022/05/31 05:21:22;;;;;;;5.97;3.55;;;;;;;;;;5048405;28;21403;-75
2022/05/31 05:23:48;;;;;;;4.60;3.40;;;;;;;;;;5045277;28;20147;-74
2022/05/31 05:26:15;;;;;;;4.63;3.38;;;;;;;;;;5047477;28;20119;-74
2022/05/31 05:31:27;;;;;;;4.13;3.30;;;;;;;;;;5047489;28;20031;-74
2022/05/31 05:33:54;;;;;;;6.82;3.70;;;;;;;;;;5043746;28;20018;-75
2022/05/31 05:36:21;;;;;;;6.03;3.78;;;;;;;;;;5028830;28;20041;-75
2022/05/31 05:38:47;;;;;;;4.78;3.63;;;;;;;;;;5046828;28;20032;-76
2022/05/31 05:41:14;;;;;;;5.55;3.58;;;;;;;;;;5048110;28;20387;-76
2022/05/31 05:43:40;;;;;;;4.43;3.80;;;;;;;;;;5045315;28;20483;-75
2022/05/31 05:46:32;;;;;;;5.90;3.40;;;;;;;;;;5046371;28;20161;-75
2022/05/31 05:48:58;;;;;;;6.72;3.97;;;;;;;;;;5041182;28;20036;-76
2022/05/31 05:51:26;;;;;;;4.95;3.28;;;;;;;;;;5052785;28;20055;-77
2022/05/31 05:53:53;;;;;;;4.50;3.55;;;;;;;;;;5041544;28;20100;-76
2022/05/31 05:56:20;;;;;;;5.75;3.75;;;;;;;;;;5046570;28;20029;-75
2022/05/31 05:58:46;;;;;;;5.53;3.60;;;;;;;;;;5042516;28;20517;-75
2022/05/31 06:01:14;;;;;;;7.10;3.60;;;;;;;;;;5046240;28;20032;-76
2022/05/31 06:03:46;;;;;;;5.32;3.83;;;;;;;;;;5040797;28;20660;-76
2022/05/31 06:06:13;;;;;;;5.80;3.90;;;;;;;;;;5042600;28;20060;-74
2022/05/31 06:08:41;;;;;;;4.10;3.50;;;;;;;;;;5054299;28;20114;-75
2022/05/31 06:11:17;;;;;;;6.05;3.30;;;;;;;;;;5046706;28;20029;-76
2022/05/31 06:13:49;;;;;;;5.85;3.10;;;;;;;;;;5041828;28;20028;-75
2022/05/31 06:16:16;;;;;;;4.10;3.33;;;;;;;;;;5050422;28;20378;-75
2022/05/31 06:18:54;;;;;;;5.57;3.92;;;;;;;;;;5044432;28;20029;-75
2022/05/31 06:21:22;;;;;;;7.22;3.92;;;;;;;;;;5044949;28;20028;-75
2022/05/31 06:23:49;;;;;;;4.13;3.08;;;;;;;;;;5049318;28;20032;-77
2022/05/31 06:26:16;;;;;;;5.38;3.42;;;;;;;;;;5051243;28;20060;-78
2022/05/31 06:28:43;;;;;;;5.10;3.25;;;;;;;;;;5043561;28;20155;-76
2022/05/31 06:31:09;;;;;;;4.78;2.78;;;;;;;;;;5045739;28;20507;-75
2022/05/31 06:33:35;;;;;;;4.78;2.78;;;;;;;;;;5044766;28;20036;-76
2022/05/31 06:36:02;;;;;;;4.72;2.97;;;;;;;;;;5047420;28;20378;-76
2022/05/31 06:38:29;;;;;;;4.80;3.03;;;;;;;;;;5046764;28;20142;-77
2022/05/31 06:40:56;;;;;;;6.50;3.30;;;;;;;;;;5047279;28;20107;-75
2022/05/31 06:43:23;;;;;;;4.45;3.28;;;;;;;;;;5038485;28;20032;-76
2022/05/31 06:45:49;;;;;;;5.95;3.10;;;;;;;;;;5042060;28;20021;-76
2022/05/31 06:48:16;;;;;;;7.30;3.40;;;;;;;;;;5041732;28;20079;-76
2022/05/31 06:50:42;;;;;;;5.65;3.15;;;;;;;;;;5038974;28;20040;-76
2022/05/31 06:58:41;;;;;;;5.53;2.90;;;;;;;;;;5041243;28;20056;-76
2022/05/31 07:01:08;;;;;;;3.80;3.13;;;;;;;;;;5031661;28;20029;-75
2022/05/31 07:03:34;;;;;;;4.30;2.50;;;;;;;;;;5041368;28;20391;-76
2022/05/31 07:06:00;;;;;;;3.47;2.63;;;;;;;;;;5043981;28;20032;-75
2022/05/31 07:08:27;;;;;;;4.57;3.22;;;;;;;;;;5041710;28;20045;-77
2022/05/31 07:10:53;;;;;;;3.63;2.45;;;;;;;;;;5044666;28;20021;-76
2022/05/31 07:13:20;;;;;;;4.10;2.50;;;;;;;;;;5041465;28;20037;-76
2022/05/31 07:15:46;;;;;;;4.22;2.30;;;;;;;;;;5046681;28;20009;-76
2022/05/31 07:18:12;;;;;;;4.15;2.47;;;;;;;;;;5022002;28;20029;-75
2022/05/31 07:20:38;;;;;;;3.50;2.50;;;;;;;;;;5045678;28;20033;-75
2022/05/31 07:23:05;;;;;;;5.15;2.75;;;;;;;;;;5037970;28;20037;-75
2022/05/31 07:25:31;;;;;;;3.38;2.25;;;;;;;;;;5044037;28;20616;-75
2022/05/31 07:27:57;;;;;;;4.18;2.58;;;;;;;;;;5043527;28;20033;-75
2022/05/31 07:30:23;;;;;;;2.85;2.15;;;;;;;;;;5043217;28;20025;-76
2022/05/31 07:32:49;;;;;;;4.85;2.45;;;;;;;;;;5042693;28;20025;-75
2022/05/31 07:35:16;;;;;;;5.65;2.58;;;;;;;;;;5044098;28;20131;-74
2022/05/31 07:37:42;;;;;;;4.75;2.50;;;;;;;;;;5044153;28;20406;-74
2022/05/31 07:40:08;;;;;;;7.13;2.45;;;;;;;;;;5044983;28;20029;-75
2022/05/31 07:42:34;;;;;;;5.30;2.40;;;;;;;;;;5051787;28;20036;-75
2022/05/31 07:45:00;;;;;;;4.63;2.20;;;;;;;;;;5050384;28;20116;-75
2022/05/31 07:47:26;;;;;;;4.13;2.33;;;;;;;;;;5048841;28;20386;-74
2022/05/31 07:49:53;;;;;;;4.85;2.50;;;;;;;;;;5050718;28;20506;-74
2022/05/31 07:52:19;;;;;;;4.20;2.38;;;;;;;;;;5044307;28;20025;-75
2022/05/31 07:54:45;;;;;;;2.55;2.20;;;;;;;;;;5043162;28;20031;-75
2022/05/31 07:58:30;;;;;;;4.47;2.10;;;;;;;;;;5046391;28;20104;-75
2022/05/31 07:59:57;;;;;;;2.72;2.08;;;;;;;;;;5046679;28;20113;-76
2022/05/31 08:02:24;;;;;;;2.78;2.25;;;;;;;;;;5041728;28;20478;-75
2022/05/31 08:04:50;;;;;;;5.63;2.45;;;;;;;;;;5042174;28;20025;-75
2022/05/31 08:07:16;;;;;;;2.92;2.55;;;;;;;;;;5046962;28;20112;-76
2022/05/31 08:09:42;;;;;;;5.57;2.65;;;;;;;;;;5046451;28;20025;-75
2022/05/31 08:12:13;;;;;;;5.97;3.67;;;;;;;;;;5049459;28;20021;-77
2022/05/31 08:14:39;;;;;;;3.47;2.25;;;;;;;;;;5044729;28;20036;-75
2022/05/31 08:17:06;;;;;;;7.50;2.30;;;;;;;;;;5042966;28;20041;-75
2022/05/31 08:19:32;;;;;;;2.47;2.13;;;;;;;;;;5040612;28;20021;-76
2022/05/31 08:21:58;;;;;;;5.15;2.20;;;;;;;;;;5041224;28;21403;-75
2022/05/31 08:24:25;;;;;;;5.45;2.47;;;;;;;;;;5037168;28;20033;-75
2022/05/31 08:26:51;;;;;;;4.35;2.25;;;;;;;;;;5044951;28;20064;-77
2022/05/31 08:29:17;;;;;;;3.42;2.60;;;;;;;;;;5043688;28;20374;-76
2022/05/31 08:31:44;;;;;;;7.75;2.30;;;;;;;;;;5044344;28;20016;-76
2022/05/31 08:34:11;;;;;;;3.33;2.10;;;;;;;;;;5038102;28;20021;-76
2022/05/31 08:36:38;;;;;;;3.90;2.10;;;;;;;;;;5042954;28;20044;-77
2022/05/31 08:39:04;;;;;;;3.15;2.00;;;;;;;;;;5037608;28;20480;-77
2022/05/31 08:41:31;;;;;;;5.65;2.55;;;;;;;;;;5045919;28;20521;-78
2022/05/31 08:44:04;;;;;;;2.78;1.83;;;;;;;;;;5042478;28;20151;-76
2022/05/31 08:46:32;;;;;;;5.03;2.30;;;;;;;;;;5042180;28;20052;-77
2022/05/31 08:49:04;;;;;;;7.05;2.13;;;;;;;;;;5044023;28;20039;-76
2022/05/31 08:51:53;;;;;;;5.40;2.47;;;;;;;;;;5039906;28;20021;-77
2022/05/31 08:57:13;;;;;;;3.40;1.90;;;;;;;;;;5044063;28;20115;-76
2022/05/31 08:59:59;;;;;;;3.13;2.30;;;;;;;;;;5043942;28;20060;-77
2022/05/31 09:02:30;;;;;;;4.20;2.58;;;;;;;;;;5043247;28;20025;-77
2022/05/31 09:05:03;;;;;;;3.35;1.98;;;;;;;;;;5043171;28;20482;-77
2022/05/31 09:07:43;;;;;;;3.53;1.85;;;;;;;;;;5037524;28;20083;-77
2022/05/31 09:10:18;;;;;;;3.70;1.90;;;;;;;;;;5040950;28;20105;-77
2022/05/31 09:12:48;;;;;;;6.25;1.92;;;;;;;;;;5038579;28;20021;-79
2022/05/31 09:15:43;;;;;;;2.60;1.90;;;;;;;;;;5038844;28;20051;-77
2022/05/31 09:18:12;;;;;;;4.13;2.50;;;;;;;;;;5034202;28;20040;-77
2022/05/31 09:20:46;;;;;;;4.40;2.17;;;;;;;;;;5044205;28;20410;-78
2022/05/31 09:23:15;;;;;;;3.75;1.90;;;;;;;;;;5044590;28;20025;-78
2022/05/31 09:25:41;;;;;;;4.18;2.00;;;;;;;;;;5041678;28;20032;-77
2022/05/31 09:28:32;;;;;;;5.35;2.22;;;;;;;;;;5038916;28;20492;-77
2022/05/31 09:31:01;;;;;;;3.65;2.15;;;;;;;;;;5041939;28;20036;-77
2022/05/31 09:33:32;;;;;;;3.15;2.30;;;;;;;;;;5040249;28;20017;-77
2022/05/31 09:36:20;;;;;;;4.53;1.88;;;;;;;;;;5046339;28;21182;-77
2022/05/31 09:38:59;;;;;;;5.65;2.00;;;;;;;;;;5040565;28;20533;-77
2022/05/31 09:41:39;;;;;;;3.40;1.88;;;;;;;;;;5039854;28;20030;-77
2022/05/31 09:44:20;;;;;;;3.60;2.22;;;;;;;;;;5046965;28;20029;-76
2022/05/31 09:47:03;;;;;;;4.93;2.10;;;;;;;;;;5047837;28;20025;-77
2022/05/31 09:49:39;;;;;;;5.30;1.90;;;;;;;;;;5035790;28;20014;-77
2022/05/31 09:52:09;;;;;;;3.58;2.67;;;;;;;;;;5041204;28;20550;-76
2022/05/31 09:57:51;;;;;;;2.45;2.10;;;;;;;;;;5019616;28;20061;-77
2022/05/31 10:00:20;;;;;;;3.28;2.15;;;;;;;;;;5011396;28;20037;-77
2022/05/31 10:02:57;;;;;;;2.88;1.70;;;;;;;;;;5015719;28;20040;-77
2022/05/31 10:05:23;;;;;;;3.45;2.20;;;;;;;;;;5016871;28;20034;-77
2022/05/31 10:07:49;;;;;;;3.13;1.80;;;;;;;;;;5010464;28;20037;-78
2022/05/31 10:10:18;;;;;;;3.50;2.10;;;;;;;;;;5008690;28;20032;-76
2022/05/31 10:12:54;;;;;;;2.38;2.08;;;;;;;;;;5000679;28;20111;-77
2022/05/31 10:15:52;;;;;;;4.75;2.10;;;;;;;;;;5003326;28;20034;-76
2022/05/31 10:18:25;;;;;;;2.50;1.85;;;;;;;;;;4980873;28;20026;-77
2022/05/31 10:20:56;;;;;;;3.17;2.00;;;;;;;;;;5009107;28;20120;-77
2022/05/31 10:23:24;;;;;;;3.22;1.85;;;;;;;;;;5011358;28;20026;-77
2022/05/31 10:25:55;;;;;;;3.60;2.10;;;;;;;;;;5002811;28;20033;-78
2022/05/31 10:28:24;;;;;;;2.22;1.85;;;;;;;;;;5009596;28;20030;-78
2022/05/31 10:31:05;;;;;;;2.90;2.00;;;;;;;;;;5000557;28;20026;-77
2022/05/31 10:33:34;;;;;;;2.53;1.80;;;;;;;;;;4997196;28;20030;-77
2022/05/31 10:36:17;;;;;;;2.10;1.70;;;;;;;;;;5000661;28;20038;-77
2022/05/31 10:38:44;;;;;;;4.35;1.92;;;;;;;;;;5003553;28;20034;-77
2022/05/31 10:41:25;;;;;;;3.22;1.80;;;;;;;;;;5002971;28;20030;-77
2022/05/31 10:44:11;;;;;;;4.65;2.00;;;;;;;;;;4999846;28;20623;-78
2022/05/31 10:46:38;;;;;;;2.83;1.85;;;;;;;;;;5006539;28;20086;-76
2022/05/31 10:49:18;;;;;;;2.78;2.10;;;;;;;;;;5005853;28;20033;-78
2022/05/31 10:52:03;;;;;;;2.88;1.80;;;;;;;;;;5002141;28;20102;-77
2022/05/31 10:54:35;;;;;;;2.20;1.67;;;;;;;;;;5006004;28;20041;-76
2022/05/31 10:57:04;;;;;;;3.22;1.90;;;;;;;;;;5000748;28;20022;-78
2022/05/31 10:59:47;;;;;;;2.70;1.67;;;;;;;;;;5003459;28;20107;-77
2022/05/31 11:02:40;;;;;;;2.30;1.80;;;;;;;;;;5002742;28;20103;-77
2022/05/31 11:05:10;;;;;;;2.17;1.67;;;;;;;;;;5001629;28;20042;-77
2022/05/31 11:07:44;;;;;;;1.73;1.45;;;;;;;;;;5001130;28;20030;-76
2022/05/31 11:13:23;;;;;;;2.15;1.83;;;;;;;;;;5000425;28;20110;-76
2022/05/31 11:15:55;;;;;;;2.35;2.00;;;;;;;;;;5000300;28;20030;-78
2022/05/31 11:18:24;;;;;;;2.58;1.80;;;;;;;;;;5002424;28;20072;-76
2022/05/31 11:20:59;;;;;;;1.95;1.70;;;;;;;;;;5007171;28;20109;-77
2022/05/31 11:23:29;;;;;;;4.07;1.60;;;;;;;;;;5006280;28;20040;-77
2022/05/31 11:26:00;;;;;;;2.00;1.73;;;;;;;;;;5005387;28;20093;-77
2022/05/31 11:28:32;;;;;;;2.13;1.63;;;;;;;;;;5006000;28;20029;-77
2022/05/31 11:31:12;;;;;;;2.60;1.77;;;;;;;;;;5004273;28;20029;-76
2022/05/31 11:33:53;;;;;;;1.80;1.38;;;;;;;;;;5011571;28;20648;-78
2022/05/31 11:36:35;;;;;;;2.75;1.70;;;;;;;;;;5011837;28;20034;-76
2022/05/31 11:39:04;;;;;;;1.83;1.60;;;;;;;;;;5003577;28;20061;-77
2022/05/31 11:41:53;;;;;;;2.60;1.70;;;;;;;;;;5004815;28;20026;-77
2022/05/31 11:44:19;;;;;;;3.08;1.60;;;;;;;;;;5008234;28;20080;-76
2022/05/31 11:46:51;;;;;;;1.60;1.50;;;;;;;;;;5006450;28;20040;-77
2022/05/31 11:49:30;;;;;;;3.60;1.77;;;;;;;;;;5003587;28;20038;-76
2022/05/31 11:52:22;;;;;;;7.05;2.60;;;;;;;;;;5027718;28;20025;-76
2022/05/31 11:55:28;;;;;;;3.15;1.98;;;;;;;;;;5008920;28;20033;-77
2022/05/31 11:58:00;;;;;;;2.13;1.90;;;;;;;;;;5003265;28;20022;-76
2022/05/31 12:00:28;;;;;;;3.47;1.90;;;;;;;;;;5004138;28;20030;-76
2022/05/31 12:02:57;;;;;;;3.50;1.98;;;;;;;;;;5003448;28;20026;-76
2022/05/31 12:05:29;;;;;;;2.95;1.90;;;;;;;;;;5004446;28;20555;-77
2022/05/31 12:08:02;;;;;;;1.70;1.60;;;;;;;;;;5002101;28;20030;-77
2022/05/31 12:10:30;;;;;;;1.85;1.70;;;;;;;;;;5004581;28;20025;-77
2022/05/31 12:12:57;;;;;;;3.25;1.70;;;;;;;;;;5006213;28;20461;-77
2022/05/31 12:15:25;;;;;;;1.80;1.70;;;;;;;;;;5006363;28;20060;-77
2022/05/31 12:17:54;;;;;;;1.90;1.70;;;;;;;;;;5007167;28;20053;-77
2022/05/31 12:20:21;;;;;;;3.05;1.80;;;;;;;;;;5012692;28;20056;-77
2022/05/31 12:22:54;;;;;;;2.53;1.73;;;;;;;;;;5009770;28;20037;-78
2022/05/31 12:25:27;;;;;;;3.42;1.90;;;;;;;;;;5010660;28;20026;-78
2022/05/31 12:27:56;;;;;;;4.63;1.60;;;;;;;;;;5013249;28;20022;-77
2022/05/31 12:30:37;;;;;;;3.47;1.70;;;;;;;;;;5005387;28;20125;-78
2022/05/31 12:33:23;;;;;;;2.25;2.05;;;;;;;;;;5004667;28;20033;-77
2022/05/31 12:35:49;;;;;;;2.15;1.48;;;;;;;;;;5004718;28;20061;-77
2022/05/31 12:38:15;;;;;;;1.85;1.60;;;;;;;;;;5007674;28;20061;-76
2022/05/31 12:40:48;;;;;;;1.40;1.30;;;;;;;;;;5004478;28;20030;-77
2022/05/31 12:43:34;;;;;;;1.80;1.70;;;;;;;;;;5008265;28;20403;-77
2022/05/31 12:46:20;;;;;;;4.47;1.50;;;;;;;;;;5007153;28;20049;-77
2022/05/31 12:48:56;;;;;;;7.25;2.42;;;;;;;;;;5007765;28;20034;-77
2022/05/31 12:51:24;;;;;;;10.55;2.08;;;;;;;;;;5004097;28;20026;-77
2022/05/31 12:53:50;;;;;;;10.30;2.50;;;;;;;;;;5004953;28;20265;-77
2022/05/31 12:56:34;;;;;;;4.78;1.83;;;;;;;;;;5002979;28;20075;-77
2022/05/31 12:59:01;;;;;;;3.40;2.50;;;;;;;;;;5001957;28;20036;-77
2022/05/31 13:01:28;;;;;;;6.38;2.50;;;;;;;;;;5003228;28;20506;-77
2022/05/31 13:03:56;;;;;;;2.92;1.75;;;;;;;;;;4997382;28;20030;-77
2022/05/31 13:06:58;;;;;;;3.00;2.10;;;;;;;;;;5011535;28;20297;-77
2022/05/31 13:09:24;;;;;;;1.52;1.42;;;;;;;;;;5003241;28;20610;-78
2022/05/31 13:20:42;;;;;;;2.60;1.65;;;;;;;;;;5003672;28;20503;-77
2022/05/31 13:23:08;;;;;;;2.00;1.40;;;;;;;;;;5003029;28;20414;-80
2022/05/31 13:25:44;;;;;;;1.60;1.50;;;;;;;;;;5006621;28;20026;-79
2022/05/31 13:28:21;;;;;;;1.92;1.42;;;;;;;;;;5003781;28;20443;-78
2022/05/31 13:30:49;;;;;;;1.60;1.50;;;;;;;;;;4996531;28;20033;-82
2022/05/31 13:33:22;;;;;;;1.60;1.50;;;;;;;;;;5007450;28;20487;-77
2022/05/31 13:36:17;;;;;;;3.53;1.55;;;;;;;;;;4999766;28;20044;-78
2022/05/31 13:38:47;;;;;;;1.67;1.42;;;;;;;;;;4993630;28;20236;-78
2022/05/31 13:41:15;;;;;;;1.65;1.17;;;;;;;;;;4998346;28;20489;-78
2022/05/31 13:43:45;;;;;;;1.30;1.20;;;;;;;;;;5002168;28;20032;-78
2022/05/31 13:46:34;;;;;;;1.35;1.25;;;;;;;;;;5001507;28;20359;-78
2022/05/31 13:49:18;;;;;;;1.40;1.33;;;;;;;;;;5002319;28;20034;-76
2022/05/31 13:51:55;;;;;;;1.67;1.20;;;;;;;;;;4997978;28;20023;-77
2022/05/31 13:54:23;;;;;;;2.47;1.60;;;;;;;;;;5002389;28;20037;-77
2022/05/31 13:56:50;;;;;;;3.90;2.42;;;;;;;;;;5001998;28;20026;-77
2022/05/31 13:59:31;;;;;;;3.97;1.55;;;;;;;;;;5002897;28;20476;-77
2022/05/31 14:01:57;;;;;;;4.05;1.70;;;;;;;;;;5003786;28;20034;-76
2022/05/31 14:04:29;;;;;;;1.67;1.58;;;;;;;;;;5000183;28;20113;-77
2022/05/31 14:06:56;;;;;;;2.17;1.50;;;;;;;;;;5000280;28;20022;-77
2022/05/31 14:09:30;;;;;;;5.07;1.90;;;;;;;;;;5001953;28;20484;-76
2022/05/31 14:11:57;;;;;;;2.75;1.60;;;;;;;;;;5004218;28;20113;-76
2022/05/31 14:14:26;;;;;;;3.60;2.10;;;;;;;;;;5003650;28;20153;-77
2022/05/31 14:16:54;;;;;;;2.25;2.15;;;;;;;;;;5004564;28;20018;-77
2022/05/31 14:19:22;;;;;;;3.20;1.67;;;;;;;;;;5001900;28;20030;-78
2022/05/31 14:21:49;;;;;;;1.65;1.55;;;;;;;;;;5001923;28;20029;-77
2022/05/31 14:24:17;;;;;;;3.90;2.00;;;;;;;;;;5001225;28;20030;-77
2022/05/31 14:26:46;;;;;;;1.50;1.40;;;;;;;;;;4999398;28;20041;-77
2022/05/31 14:29:24;;;;;;;3.22;1.83;;;;;;;;;;5000571;28;20433;-77
2022/05/31 14:32:09;;;;;;;1.60;1.50;;;;;;;;;;4998763;28;20161;-77
2022/05/31 14:34:36;;;;;;;3.55;1.80;;;;;;;;;;5003982;28;20082;-77
2022/05/31 14:37:02;;;;;;;2.17;1.70;;;;;;;;;;5001062;28;20042;-77
2022/05/31 14:39:30;;;;;;;2.92;1.90;;;;;;;;;;5007830;28;20494;-77
2022/05/31 14:41:56;;;;;;;2.10;1.90;;;;;;;;;;5001956;28;20033;-77
2022/05/31 14:44:35;;;;;;;2.13;1.83;;;;;;;;;;5007049;28;20026;-77
2022/05/31 14:47:13;;;;;;;2.08;1.70;;;;;;;;;;5011277;28;20076;-78
2022/05/31 14:49:44;;;;;;;2.13;1.92;;;;;;;;;;5007197;28;20629;-77
2022/05/31 14:52:30;;;;;;;1.95;1.70;;;;;;;;;;5008314;28;20092;-77
2022/05/31 14:55:14;;;;;;;2.40;1.60;;;;;;;;;;4999983;28;20025;-77
2022/05/31 15:00:25;;;;;;;;;;;;;;;;;;4999861;28;20057;-77
2022/05/31 15:02:52;;;;;;;1.75;1.65;;;;;;;;;;5001277;28;19953;-80
2022/05/31 15:05:22;;;;;;;1.90;1.70;;;;;;;;;;5004320;28;20022;-77
2022/05/31 15:07:53;;;;;;;2.22;1.80;;;;;;;;;;5001766;28;20030;-79
2022/05/31 15:10:33;;;;;;;2.38;1.77;;;;;;;;;;5006102;28;20516;-80
2022/05/31 15:18:59;;;;;;;;;;;;;;;;;;5003979;28;21739;-79
2022/05/31 15:21:34;;;;;;;2.53;1.80;;;;;;;;;;5012402;28;19944;-77
2022/05/31 15:24:03;;;;;;;4.22;1.83;;;;;;;;;;5000584;28;20037;-77
2022/05/31 15:26:29;;;;;;;3.10;1.90;;;;;;;;;;5005550;28;20041;-77
2022/05/31 15:28:56;;;;;;;2.67;1.90;;;;;;;;;;5003037;28;20037;-77
2022/05/31 15:31:32;;;;;;;3.63;1.80;;;;;;;;;;4998808;28;20156;-77
2022/05/31 15:33:59;;;;;;;1.50;1.40;;;;;;;;;;4999560;28;20033;-78
2022/05/31 15:36:26;;;;;;;2.35;1.70;;;;;;;;;;4999626;28;20392;-78
2022/05/31 15:38:53;;;;;;;2.20;1.50;;;;;;;;;;5005423;28;20018;-77